Oceanus — WXAQ — position and weather

sailwx.info

Track history (hours):
 
Tides and Currents Weather Stations Pressure Air Temp Water Temp Dewpoint Dewpoint Depression Visibility Wind Speed Wind Dir Waves Ship Positions

Oceanographic research ship Oceanus (USA)

Detailed information on ship capabilities available from University of Delaware's Ocean Information Center and ARCUS's ALIAS (Arctic Logistics Information and Support) project.

Owner: Oregon State University, Newport, OR. More information available from US FCC via Universal Licensing System.

Last reported at 2019-Jul-31 06:00 UTC. Time now 2019-Aug-24 22:54 UTC.
Position N 44°24' W 124°18'.
Warning: this ship's position is 24 days out of date.

Length 54 m; draft 11.1 m.

Type: Other ship. MMSI: 367977000.

Wind at 3 knots

Barometer 1017.8 mb
Air temperature 15.0 ° C
Visibility: greater than 10.8 NM
Dewpoint 15.0 ° C
Water temperature 13.5 ° C

Date/timePositionNaut miles runAvg speedWind from/ knotsBaromVisibWave heightAir tempDewpointWater temp
2019-Jul-31 06:00N 44°24' W 124°18'   1017.810.8 15.015.013.5
2019-Jul-27 18:00N 43°12' W 124°42'12610.5 350 / 121025.010.8 16.714.817.1
2019-Jul-27 06:00N 41°06' W 124°42'13010.8 010 / 81021.9 2.2 13.913.911.6
2019-Jul-26 18:00N 39°00' W 124°00'31 8.3 100 / 71018.8 0.3 11.111.111.8
2019-Jul-26 14:13N 38°30' W 123°48'311.7
2019-Jul-26 14:00N 38°28' W 123°47'611.5
2019-Jul-26 13:30N 38°22' W 123°44'611.6
2019-Jul-26 13:00N 38°17' W 123°41'611.7
2019-Jul-26 12:28N 38°11' W 123°38'511.8
2019-Jul-26 12:00N 38°06' W 123°36'611.3
2019-Jul-26 11:30N 38°01' W 123°34'611.7
2019-Jul-26 11:00N 37°55' W 123°31'3011.6
2019-Jul-26 08:22N 37°28' W 123°14'1111.3
2019-Jul-26 07:23N 37°18' W 123°07'511.1
2019-Jul-26 06:58N 37°14' W 123°04'610.9
2019-Jul-26 06:27N 37°09' W 123°00'1123.1
2019-Jul-26 06:00N 37°00' W 122°54'4 5.5 320 / 121016.2 5.4 14.413.514.7
2019-Jul-26 05:10N 36°59' W 122°48'511.4
2019-Jul-26 04:42N 36°54' W 122°46'4011.5
2019-Jul-26 01:10N 36°17' W 122°25'311.2
2019-Jul-26 00:55N 36°15' W 122°23'1718.8
2019-Jul-26 00:00N 36°00' W 122°12'6410.7 330 / 131015.0 5.4 15.013.216.0
2019-Jul-25 18:00N 35°06' W 121°30'8 5.3 330 / 131016.3 2.2 15.614.615.6
2019-Jul-25 16:27N 34°58' W 121°27'8 7.6
2019-Jul-25 15:23N 34°51' W 121°22'411.2
2019-Jul-25 15:00N 34°47' W 121°19'611.2
2019-Jul-25 14:30N 34°43' W 121°16'2411.4
2019-Jul-25 12:25N 34°22' W 121°02'511.5
2019-Jul-25 11:59N 34°18' W 120°59'1311.6
2019-Jul-25 10:50N 34°06' W 120°51'4511.2
2019-Jul-25 06:50N 33°44' W 120°04'1113.6
2019-Jul-25 06:00N 33°36' W 119°54'1211.2 320 / 121013.2 5.4 17.816.818.4
2019-Jul-25 04:55N 33°34' W 119°40'511.9
2019-Jul-25 04:31N 33°32' W 119°34'611.6
2019-Jul-25 04:00N 33°30' W 119°28'611.2
2019-Jul-25 03:31N 33°28' W 119°22'611.5
2019-Jul-25 03:01N 33°25' W 119°16'1111.3
2019-Jul-25 02:00N 33°21' W 119°03'611.1
2019-Jul-25 01:30N 33°18' W 118°57'611.1
2019-Jul-25 01:00N 33°16' W 118°51'611.3
2019-Jul-25 00:30N 33°13' W 118°45'611.8
2019-Jul-25 00:00N 33°11' W 118°39'3173.1
2019-Jul-25 00:00N 33°12' W 118°42'918.0 300 / 91012.010.8 19.017.421.0
2019-Jul-24 23:30N 33°09' W 118°32'611.3
2019-Jul-24 23:00N 33°06' W 118°26'611.4
2019-Jul-24 22:31N 33°04' W 118°20'611.5
2019-Jul-24 22:01N 33°01' W 118°14'611.7
2019-Jul-24 21:31N 32°59' W 118°08'611.7
2019-Jul-24 21:00N 32°56' W 118°01'611.6
2019-Jul-24 20:30N 32°53' W 117°55'611.8
2019-Jul-24 20:00N 32°51' W 117°49'611.6
2019-Jul-24 19:31N 32°48' W 117°43'611.4
2019-Jul-24 19:00N 32°46' W 117°37'611.5
2019-Jul-24 18:30N 32°41' W 117°33'611.6
2019-Jul-24 18:01N 32°38' W 117°27'611.2
2019-Jul-24 17:30N 32°37' W 117°21'611.0
2019-Jul-24 17:00N 32°38' W 117°14'4 8.8
2019-Jul-24 16:30N 32°42' W 117°14'0 0.1
2019-Jul-24 15:59N 32°42' W 117°14'0 0.0
2019-Jul-24 15:29N 32°42' W 117°14'0 0.0
2019-Jul-24 14:59N 32°42' W 117°14'0 0.0
2019-Jul-24 14:29N 32°42' W 117°14'0 0.0
2019-Jul-24 13:59N 32°42' W 117°14'0 0.0
2019-Jul-24 13:29N 32°42' W 117°14'0 0.0
2019-Jul-24 12:59N 32°42' W 117°14'0 0.0
2019-Jul-24 12:29N 32°42' W 117°14'0 0.0
2019-Jul-24 11:59N 32°42' W 117°14'0 0.0
2019-Jul-24 11:29N 32°42' W 117°14'0 0.0
2019-Jul-24 10:59N 32°42' W 117°14'0 0.0
2019-Jul-24 10:29N 32°42' W 117°14'0 0.0
2019-Jul-24 09:59N 32°42' W 117°14'0 0.0
2019-Jul-24 09:29N 32°42' W 117°14'0 0.0
2019-Jul-24 08:59N 32°42' W 117°14'0 0.0
2019-Jul-24 08:29N 32°42' W 117°14'0 0.0
2019-Jul-24 07:59N 32°42' W 117°14'0 0.0
2019-Jul-24 07:29N 32°42' W 117°14'0 0.0
2019-Jul-24 06:59N 32°42' W 117°14'0 0.0
2019-Jul-24 06:29N 32°42' W 117°14'0 0.0
2019-Jul-24 05:59N 32°42' W 117°14'0 0.0
2019-Jul-24 05:29N 32°42' W 117°14'0 0.0
2019-Jul-24 04:59N 32°42' W 117°14'0 0.0
2019-Jul-24 04:29N 32°42' W 117°14'0 0.0
2019-Jul-24 03:59N 32°42' W 117°14'0 0.0
2019-Jul-24 03:29N 32°42' W 117°14'0 0.0
2019-Jul-24 02:59N 32°42' W 117°14'0 0.0
2019-Jul-24 01:59N 32°42' W 117°14'0 0.0
2019-Jul-24 01:29N 32°42' W 117°14'0 0.0
2019-Jul-24 00:59N 32°42' W 117°14'0 0.0
2019-Jul-24 00:29N 32°42' W 117°14'0 0.0
2019-Jul-23 23:59N 32°42' W 117°14'0 0.0
2019-Jul-23 23:29N 32°42' W 117°14'0 0.0
2019-Jul-23 22:59N 32°42' W 117°14'0 0.0
2019-Jul-23 22:29N 32°42' W 117°14'0 0.0
2019-Jul-23 21:59N 32°42' W 117°14'0 0.0
2019-Jul-23 21:29N 32°42' W 117°14'0 0.0
2019-Jul-23 20:59N 32°42' W 117°14'0 0.0
2019-Jul-23 20:29N 32°42' W 117°14'0 0.0
2019-Jul-23 19:59N 32°42' W 117°14'0 0.0
2019-Jul-23 19:26N 32°42' W 117°14'0 0.0
2019-Jul-23 18:59N 32°42' W 117°14'0 0.0
2019-Jul-23 18:29N 32°42' W 117°14'0 0.0
2019-Jul-23 17:59N 32°42' W 117°14'0 0.0
2019-Jul-23 17:29N 32°42' W 117°14'0 0.0
2019-Jul-23 16:59N 32°42' W 117°14'0 0.0
2019-Jul-23 16:29N 32°42' W 117°14'0 0.0
2019-Jul-23 15:59N 32°42' W 117°14'0 0.0
2019-Jul-23 15:29N 32°42' W 117°14'0 0.0
2019-Jul-23 14:59N 32°42' W 117°14'0 0.0
2019-Jul-23 14:29N 32°42' W 117°14'0 0.0
2019-Jul-23 13:59N 32°42' W 117°14'0 0.0
2019-Jul-23 13:29N 32°42' W 117°14'0 0.0
2019-Jul-23 12:59N 32°42' W 117°14'0 0.0
2019-Jul-23 12:28N 32°42' W 117°14'0 0.0
2019-Jul-23 11:58N 32°42' W 117°14'0 0.0
2019-Jul-23 11:28N 32°42' W 117°14'0 0.0
2019-Jul-23 10:58N 32°42' W 117°14'0 0.0
2019-Jul-23 10:28N 32°42' W 117°14'0 0.0
2019-Jul-23 09:58N 32°42' W 117°14'0 0.0
2019-Jul-23 09:28N 32°42' W 117°14'0 0.0
2019-Jul-23 08:58N 32°42' W 117°14'0 0.0
2019-Jul-23 08:28N 32°42' W 117°14'0 0.0
2019-Jul-23 07:58N 32°42' W 117°14'0 0.0
2019-Jul-23 07:28N 32°42' W 117°14'0 0.0
2019-Jul-23 06:58N 32°42' W 117°14'0 0.0
2019-Jul-23 06:28N 32°42' W 117°14'0 0.0
2019-Jul-23 05:58N 32°42' W 117°14'0 0.0
2019-Jul-23 05:28N 32°42' W 117°14'0 0.0
2019-Jul-23 04:58N 32°42' W 117°14'0 0.0
2019-Jul-23 04:28N 32°42' W 117°14'0 0.0
2019-Jul-23 03:58N 32°42' W 117°14'0 0.0
2019-Jul-23 03:28N 32°42' W 117°14'0 0.0
2019-Jul-23 02:58N 32°42' W 117°14'0 0.0
2019-Jul-23 01:58N 32°42' W 117°14'0 0.0
2019-Jul-23 01:28N 32°42' W 117°14'0 0.0
2019-Jul-23 00:58N 32°42' W 117°14'0 0.0
2019-Jul-23 00:28N 32°42' W 117°14'0 0.0
2019-Jul-22 23:58N 32°42' W 117°14'0 0.0
2019-Jul-22 23:28N 32°42' W 117°14'0 0.0
2019-Jul-22 22:58N 32°42' W 117°14'0 0.0
2019-Jul-22 22:28N 32°42' W 117°14'0 0.0
2019-Jul-22 21:58N 32°42' W 117°14'0 0.0
2019-Jul-22 21:28N 32°42' W 117°14'0 0.0
2019-Jul-22 20:58N 32°42' W 117°14'0 0.0
2019-Jul-22 20:28N 32°42' W 117°14'0 0.0
2019-Jul-22 20:00N 32°42' W 117°14'1 2.1
2019-Jul-22 19:31N 32°41' W 117°14'4 8.6
2019-Jul-22 19:01N 32°37' W 117°14'4 7.5
2019-Jul-22 18:30N 32°36' W 117°18'4 7.9
2019-Jul-22 18:00N 32°36' W 117°23'4 7.9
2019-Jul-22 17:31N 32°36' W 117°28'510.0
2019-Jul-22 17:01N 32°35' W 117°34'611.2
2019-Jul-22 16:30N 32°35' W 117°40'611.2
2019-Jul-22 16:00N 32°35' W 117°47'510.9
2019-Jul-22 15:30N 32°35' W 117°53'611.0
2019-Jul-22 15:00N 32°35' W 118°00'511.1
2019-Jul-22 14:30N 32°35' W 118°06'611.0
2019-Jul-22 14:00N 32°35' W 118°13'510.9
2019-Jul-22 13:31N 32°35' W 118°19'611.3
2019-Jul-22 13:00N 32°36' W 118°26'611.7
2019-Jul-22 12:30N 32°36' W 118°33'611.4
2019-Jul-22 12:00N 32°36' W 118°40'2153.5
2019-Jul-22 12:00N 32°36' W 118°42'4 7.4 300 / 131014.010.8 16.014.318.0
2019-Jul-22 11:30N 32°36' W 118°46'510.8
2019-Jul-22 11:00N 32°36' W 118°53'611.1
2019-Jul-22 10:30N 32°36' W 118°59'611.3
2019-Jul-22 10:00N 32°36' W 119°06'611.2
2019-Jul-22 09:30N 32°36' W 119°13'611.3
2019-Jul-22 09:01N 32°36' W 119°19'611.1
2019-Jul-22 08:30N 32°36' W 119°26'611.3
2019-Jul-22 08:00N 32°36' W 119°33'611.5
2019-Jul-22 07:29N 32°36' W 119°40'611.2
2019-Jul-22 06:55N 32°36' W 119°47'13 1.1
2019-Jul-21 18:47N 32°32' W 120°03'2 7.6
2019-Jul-21 18:30N 32°31' W 120°01'1 1.2
2019-Jul-21 18:01N 32°30' W 120°01'0 0.1
2019-Jul-21 17:30N 32°30' W 120°01'0 0.1
2019-Jul-21 17:00N 32°30' W 120°01'1 1.8
2019-Jul-21 16:26N 32°30' W 119°60'3 7.5
2019-Jul-21 16:00N 32°30' W 119°56'711.7
2019-Jul-21 15:24N 32°32' W 119°48'511.6
2019-Jul-21 15:00N 32°32' W 119°42'611.7
2019-Jul-21 14:30N 32°33' W 119°35'612.1
2019-Jul-21 14:00N 32°34' W 119°28'611.9
2019-Jul-21 13:30N 32°35' W 119°21'612.1
2019-Jul-21 13:00N 32°36' W 119°14'612.2
2019-Jul-21 12:30N 32°37' W 119°07'612.1
2019-Jul-21 12:01N 32°38' W 119°00'3 5.4
2019-Jul-21 11:30N 32°38' W 118°57'0 0.2
2019-Jul-21 11:00N 32°38' W 118°57'0 0.2
2019-Jul-21 10:30N 32°38' W 118°57'0 0.1
2019-Jul-21 10:00N 32°38' W 118°57'0 0.1
2019-Jul-21 09:25N 32°38' W 118°57'0 0.1
2019-Jul-21 09:00N 32°38' W 118°57'1 2.6
2019-Jul-21 08:30N 32°38' W 118°58'3 7.0
2019-Jul-21 08:00N 32°39' W 119°03'0 0.2
2019-Jul-21 07:30N 32°39' W 119°02'0 0.1
2019-Jul-21 07:00N 32°39' W 119°02'0 0.2
2019-Jul-21 06:30N 32°39' W 119°02'3 5.7
2019-Jul-21 06:00N 32°39' W 118°59'  
Track history (hours):
 
Tides and Currents Weather Stations Pressure Air Temp Water Temp Dewpoint Dewpoint Depression Visibility Wind Speed Wind Dir Waves Ship Positions

Oceanographic research ship Oceanus (USA)

Detailed information on ship capabilities available from University of Delaware's Ocean Information Center and ARCUS's ALIAS (Arctic Logistics Information and Support) project.

Owner: Oregon State University, Newport, OR. More information available from US FCC via Universal Licensing System.

Last reported at 2019-Jul-31 06:00 UTC. Time now 2019-Aug-24 22:54 UTC.
Position N 44°24' W 124°18'.
Warning: this ship's position is 24 days out of date.

Length 54 m; draft 11.1 m.

Type: Other ship. MMSI: 367977000.

Wind at 3 knots

Barometer 1017.8 mb
Air temperature 15.0 ° C
Visibility: greater than 10.8 NM
Dewpoint 15.0 ° C
Water temperature 13.5 ° C

Date/timePositionNaut miles runAvg speedWind from/ knotsBaromVisibWave heightAir tempDewpointWater temp
2019-Jul-31 06:00N 44°24' W 124°18'   1017.810.8 15.015.013.5
2019-Jul-27 18:00N 43°12' W 124°42'12610.5 350 / 121025.010.8 16.714.817.1
2019-Jul-27 06:00N 41°06' W 124°42'13010.8 010 / 81021.9 2.2 13.913.911.6
2019-Jul-26 18:00N 39°00' W 124°00'31 8.3 100 / 71018.8 0.3 11.111.111.8
2019-Jul-26 14:13N 38°30' W 123°48'311.7
2019-Jul-26 14:00N 38°28' W 123°47'611.5
2019-Jul-26 13:30N 38°22' W 123°44'611.6
2019-Jul-26 13:00N 38°17' W 123°41'611.7
2019-Jul-26 12:28N 38°11' W 123°38'511.8
2019-Jul-26 12:00N 38°06' W 123°36'611.3
2019-Jul-26 11:30N 38°01' W 123°34'611.7
2019-Jul-26 11:00N 37°55' W 123°31'3011.6
2019-Jul-26 08:22N 37°28' W 123°14'1111.3
2019-Jul-26 07:23N 37°18' W 123°07'511.1
2019-Jul-26 06:58N 37°14' W 123°04'610.9
2019-Jul-26 06:27N 37°09' W 123°00'1123.1
2019-Jul-26 06:00N 37°00' W 122°54'4 5.5 320 / 121016.2 5.4 14.413.514.7
2019-Jul-26 05:10N 36°59' W 122°48'511.4
2019-Jul-26 04:42N 36°54' W 122°46'4011.5
2019-Jul-26 01:10N 36°17' W 122°25'311.2
2019-Jul-26 00:55N 36°15' W 122°23'1718.8
2019-Jul-26 00:00N 36°00' W 122°12'6410.7 330 / 131015.0 5.4 15.013.216.0
2019-Jul-25 18:00N 35°06' W 121°30'8 5.3 330 / 131016.3 2.2 15.614.615.6
2019-Jul-25 16:27N 34°58' W 121°27'8 7.6
2019-Jul-25 15:23N 34°51' W 121°22'411.2
2019-Jul-25 15:00N 34°47' W 121°19'611.2
2019-Jul-25 14:30N 34°43' W 121°16'2411.4
2019-Jul-25 12:25N 34°22' W 121°02'511.5
2019-Jul-25 11:59N 34°18' W 120°59'1311.6
2019-Jul-25 10:50N 34°06' W 120°51'4511.2
2019-Jul-25 06:50N 33°44' W 120°04'1113.6
2019-Jul-25 06:00N 33°36' W 119°54'1211.2 320 / 121013.2 5.4 17.816.818.4
2019-Jul-25 04:55N 33°34' W 119°40'511.9
2019-Jul-25 04:31N 33°32' W 119°34'611.6
2019-Jul-25 04:00N 33°30' W 119°28'611.2
2019-Jul-25 03:31N 33°28' W 119°22'611.5
2019-Jul-25 03:01N 33°25' W 119°16'1111.3
2019-Jul-25 02:00N 33°21' W 119°03'611.1
2019-Jul-25 01:30N 33°18' W 118°57'611.1
2019-Jul-25 01:00N 33°16' W 118°51'611.3
2019-Jul-25 00:30N 33°13' W 118°45'611.8
2019-Jul-25 00:00N 33°11' W 118°39'3173.1
2019-Jul-25 00:00N 33°12' W 118°42'918.0 300 / 91012.010.8 19.017.421.0
2019-Jul-24 23:30N 33°09' W 118°32'611.3
2019-Jul-24 23:00N 33°06' W 118°26'611.4
2019-Jul-24 22:31N 33°04' W 118°20'611.5
2019-Jul-24 22:01N 33°01' W 118°14'611.7
2019-Jul-24 21:31N 32°59' W 118°08'611.7
2019-Jul-24 21:00N 32°56' W 118°01'611.6
2019-Jul-24 20:30N 32°53' W 117°55'611.8
2019-Jul-24 20:00N 32°51' W 117°49'611.6
2019-Jul-24 19:31N 32°48' W 117°43'611.4
2019-Jul-24 19:00N 32°46' W 117°37'611.5
2019-Jul-24 18:30N 32°41' W 117°33'611.6
2019-Jul-24 18:01N 32°38' W 117°27'611.2
2019-Jul-24 17:30N 32°37' W 117°21'611.0
2019-Jul-24 17:00N 32°38' W 117°14'4 8.8
2019-Jul-24 16:30N 32°42' W 117°14'0 0.1
2019-Jul-24 15:59N 32°42' W 117°14'0 0.0
2019-Jul-24 15:29N 32°42' W 117°14'0 0.0
2019-Jul-24 14:59N 32°42' W 117°14'0 0.0
2019-Jul-24 14:29N 32°42' W 117°14'0 0.0
2019-Jul-24 13:59N 32°42' W 117°14'0 0.0
2019-Jul-24 13:29N 32°42' W 117°14'0 0.0
2019-Jul-24 12:59N 32°42' W 117°14'0 0.0
2019-Jul-24 12:29N 32°42' W 117°14'0 0.0
2019-Jul-24 11:59N 32°42' W 117°14'0 0.0
2019-Jul-24 11:29N 32°42' W 117°14'0 0.0
2019-Jul-24 10:59N 32°42' W 117°14'0 0.0
2019-Jul-24 10:29N 32°42' W 117°14'0 0.0
2019-Jul-24 09:59N 32°42' W 117°14'0 0.0
2019-Jul-24 09:29N 32°42' W 117°14'0 0.0
2019-Jul-24 08:59N 32°42' W 117°14'0 0.0
2019-Jul-24 08:29N 32°42' W 117°14'0 0.0
2019-Jul-24 07:59N 32°42' W 117°14'0 0.0
2019-Jul-24 07:29N 32°42' W 117°14'0 0.0
2019-Jul-24 06:59N 32°42' W 117°14'0 0.0
2019-Jul-24 06:29N 32°42' W 117°14'0 0.0
2019-Jul-24 05:59N 32°42' W 117°14'0 0.0
2019-Jul-24 05:29N 32°42' W 117°14'0 0.0
2019-Jul-24 04:59N 32°42' W 117°14'0 0.0
2019-Jul-24 04:29N 32°42' W 117°14'0 0.0
2019-Jul-24 03:59N 32°42' W 117°14'0 0.0
2019-Jul-24 03:29N 32°42' W 117°14'0 0.0
2019-Jul-24 02:59N 32°42' W 117°14'0 0.0
2019-Jul-24 01:59N 32°42' W 117°14'0 0.0
2019-Jul-24 01:29N 32°42' W 117°14'0 0.0
2019-Jul-24 00:59N 32°42' W 117°14'0 0.0
2019-Jul-24 00:29N 32°42' W 117°14'0 0.0
2019-Jul-23 23:59N 32°42' W 117°14'0 0.0
2019-Jul-23 23:29N 32°42' W 117°14'0 0.0
2019-Jul-23 22:59N 32°42' W 117°14'0 0.0
2019-Jul-23 22:29N 32°42' W 117°14'0 0.0
2019-Jul-23 21:59N 32°42' W 117°14'0 0.0
2019-Jul-23 21:29N 32°42' W 117°14'0 0.0
2019-Jul-23 20:59N 32°42' W 117°14'0 0.0
2019-Jul-23 20:29N 32°42' W 117°14'0 0.0
2019-Jul-23 19:59N 32°42' W 117°14'0 0.0
2019-Jul-23 19:26N 32°42' W 117°14'0 0.0
2019-Jul-23 18:59N 32°42' W 117°14'0 0.0
2019-Jul-23 18:29N 32°42' W 117°14'0 0.0
2019-Jul-23 17:59N 32°42' W 117°14'0 0.0
2019-Jul-23 17:29N 32°42' W 117°14'0 0.0
2019-Jul-23 16:59N 32°42' W 117°14'0 0.0
2019-Jul-23 16:29N 32°42' W 117°14'0 0.0
2019-Jul-23 15:59N 32°42' W 117°14'0 0.0
2019-Jul-23 15:29N 32°42' W 117°14'0 0.0
2019-Jul-23 14:59N 32°42' W 117°14'0 0.0
2019-Jul-23 14:29N 32°42' W 117°14'0 0.0
2019-Jul-23 13:59N 32°42' W 117°14'0 0.0
2019-Jul-23 13:29N 32°42' W 117°14'0 0.0
2019-Jul-23 12:59N 32°42' W 117°14'0 0.0
2019-Jul-23 12:28N 32°42' W 117°14'0 0.0
2019-Jul-23 11:58N 32°42' W 117°14'0 0.0
2019-Jul-23 11:28N 32°42' W 117°14'0 0.0
2019-Jul-23 10:58N 32°42' W 117°14'0 0.0
2019-Jul-23 10:28N 32°42' W 117°14'0 0.0
2019-Jul-23 09:58N 32°42' W 117°14'0 0.0
2019-Jul-23 09:28N 32°42' W 117°14'0 0.0
2019-Jul-23 08:58N 32°42' W 117°14'0 0.0
2019-Jul-23 08:28N 32°42' W 117°14'0 0.0
2019-Jul-23 07:58N 32°42' W 117°14'0 0.0
2019-Jul-23 07:28N 32°42' W 117°14'0 0.0
2019-Jul-23 06:58N 32°42' W 117°14'0 0.0
2019-Jul-23 06:28N 32°42' W 117°14'0 0.0
2019-Jul-23 05:58N 32°42' W 117°14'0 0.0
2019-Jul-23 05:28N 32°42' W 117°14'0 0.0
2019-Jul-23 04:58N 32°42' W 117°14'0 0.0
2019-Jul-23 04:28N 32°42' W 117°14'0 0.0
2019-Jul-23 03:58N 32°42' W 117°14'0 0.0
2019-Jul-23 03:28N 32°42' W 117°14'0 0.0
2019-Jul-23 02:58N 32°42' W 117°14'0 0.0
2019-Jul-23 01:58N 32°42' W 117°14'0 0.0
2019-Jul-23 01:28N 32°42' W 117°14'0 0.0
2019-Jul-23 00:58N 32°42' W 117°14'0 0.0
2019-Jul-23 00:28N 32°42' W 117°14'0 0.0
2019-Jul-22 23:58N 32°42' W 117°14'0 0.0
2019-Jul-22 23:28N 32°42' W 117°14'0 0.0
2019-Jul-22 22:58N 32°42' W 117°14'0 0.0
2019-Jul-22 22:28N 32°42' W 117°14'0 0.0
2019-Jul-22 21:58N 32°42' W 117°14'0 0.0
2019-Jul-22 21:28N 32°42' W 117°14'0 0.0
2019-Jul-22 20:58N 32°42' W 117°14'0 0.0
2019-Jul-22 20:28N 32°42' W 117°14'0 0.0
2019-Jul-22 20:00N 32°42' W 117°14'1 2.1
2019-Jul-22 19:31N 32°41' W 117°14'4 8.6
2019-Jul-22 19:01N 32°37' W 117°14'4 7.5
2019-Jul-22 18:30N 32°36' W 117°18'4 7.9
2019-Jul-22 18:00N 32°36' W 117°23'4 7.9
2019-Jul-22 17:31N 32°36' W 117°28'510.0
2019-Jul-22 17:01N 32°35' W 117°34'611.2
2019-Jul-22 16:30N 32°35' W 117°40'611.2
2019-Jul-22 16:00N 32°35' W 117°47'510.9
2019-Jul-22 15:30N 32°35' W 117°53'611.0
2019-Jul-22 15:00N 32°35' W 118°00'511.1
2019-Jul-22 14:30N 32°35' W 118°06'611.0
2019-Jul-22 14:00N 32°35' W 118°13'510.9
2019-Jul-22 13:31N 32°35' W 118°19'611.3
2019-Jul-22 13:00N 32°36' W 118°26'611.7
2019-Jul-22 12:30N 32°36' W 118°33'611.4
2019-Jul-22 12:00N 32°36' W 118°40'2153.5
2019-Jul-22 12:00N 32°36' W 118°42'4 7.4 300 / 131014.010.8 16.014.318.0
2019-Jul-22 11:30N 32°36' W 118°46'510.8
2019-Jul-22 11:00N 32°36' W 118°53'611.1
2019-Jul-22 10:30N 32°36' W 118°59'611.3
2019-Jul-22 10:00N 32°36' W 119°06'611.2
2019-Jul-22 09:30N 32°36' W 119°13'611.3
2019-Jul-22 09:01N 32°36' W 119°19'611.1
2019-Jul-22 08:30N 32°36' W 119°26'611.3
2019-Jul-22 08:00N 32°36' W 119°33'611.5
2019-Jul-22 07:29N 32°36' W 119°40'611.2
2019-Jul-22 06:55N 32°36' W 119°47'13 1.1
2019-Jul-21 18:47N 32°32' W 120°03'2 7.6
2019-Jul-21 18:30N 32°31' W 120°01'1 1.2
2019-Jul-21 18:01N 32°30' W 120°01'0 0.1
2019-Jul-21 17:30N 32°30' W 120°01'0 0.1
2019-Jul-21 17:00N 32°30' W 120°01'1 1.8
2019-Jul-21 16:26N 32°30' W 119°60'3 7.5
2019-Jul-21 16:00N 32°30' W 119°56'711.7
2019-Jul-21 15:24N 32°32' W 119°48'511.6
2019-Jul-21 15:00N 32°32' W 119°42'611.7
2019-Jul-21 14:30N 32°33' W 119°35'612.1
2019-Jul-21 14:00N 32°34' W 119°28'611.9
2019-Jul-21 13:30N 32°35' W 119°21'612.1
2019-Jul-21 13:00N 32°36' W 119°14'612.2
2019-Jul-21 12:30N 32°37' W 119°07'612.1
2019-Jul-21 12:01N 32°38' W 119°00'3 5.4
2019-Jul-21 11:30N 32°38' W 118°57'0 0.2
2019-Jul-21 11:00N 32°38' W 118°57'0 0.2
2019-Jul-21 10:30N 32°38' W 118°57'0 0.1
2019-Jul-21 10:00N 32°38' W 118°57'0 0.1
2019-Jul-21 09:25N 32°38' W 118°57'0 0.1
2019-Jul-21 09:00N 32°38' W 118°57'1 2.6
2019-Jul-21 08:30N 32°38' W 118°58'3 7.0
2019-Jul-21 08:00N 32°39' W 119°03'0 0.2
2019-Jul-21 07:30N 32°39' W 119°02'0 0.1
2019-Jul-21 07:00N 32°39' W 119°02'0 0.2
2019-Jul-21 06:30N 32°39' W 119°02'3 5.7
2019-Jul-21 06:00N 32°39' W 118°59'  

Dump ship's entire track history